sensor_id;sensor_type;location;lat;lon;timestamp;P1;durP1;ratioP1;P2;durP2;ratioP2
8640;SDS011;4358;42.100;25.222;2023-06-19T00:02:27;5.83;;;5.33;;
8640;SDS011;4358;42.100;25.222;2023-06-19T00:04:54;5.83;;;5.33;;
8640;SDS011;4358;42.100;25.222;2023-06-19T00:07:21;5.40;;;4.90;;
8640;SDS011;4358;42.100;25.222;2023-06-19T00:09:48;6.60;;;5.50;;
8640;SDS011;4358;42.100;25.222;2023-06-19T00:12:16;6.23;;;5.63;;
8640;SDS011;4358;42.100;25.222;2023-06-19T00:14:43;5.73;;;5.20;;
8640;SDS011;4358;42.100;25.222;2023-06-19T00:17:09;6.70;;;6.00;;
8640;SDS011;4358;42.100;25.222;2023-06-19T00:19:37;6.93;;;6.23;;
8640;SDS011;4358;42.100;25.222;2023-06-19T00:22:04;6.70;;;6.10;;
8640;SDS011;4358;42.100;25.222;2023-06-19T00:24:31;8.17;;;6.87;;
8640;SDS011;4358;42.100;25.222;2023-06-19T00:26:58;7.20;;;6.50;;
8640;SDS011;4358;42.100;25.222;2023-06-19T00:29:29;8.10;;;6.47;;
8640;SDS011;4358;42.100;25.222;2023-06-19T00:31:56;6.93;;;6.27;;
8640;SDS011;4358;42.100;25.222;2023-06-19T00:34:22;6.50;;;5.90;;
8640;SDS011;4358;42.100;25.222;2023-06-19T00:36:49;7.20;;;6.00;;
8640;SDS011;4358;42.100;25.222;2023-06-19T00:39:16;6.50;;;5.90;;
8640;SDS011;4358;42.100;25.222;2023-06-19T00:41:44;6.50;;;5.77;;
8640;SDS011;4358;42.100;25.222;2023-06-19T00:44:13;6.60;;;5.90;;
8640;SDS011;4358;42.100;25.222;2023-06-19T00:46:41;6.90;;;5.43;;
8640;SDS011;4358;42.100;25.222;2023-06-19T00:49:08;6.57;;;5.37;;
8640;SDS011;4358;42.100;25.222;2023-06-19T00:51:35;6.23;;;5.30;;
8640;SDS011;4358;42.100;25.222;2023-06-19T00:54:02;6.03;;;5.43;;
8640;SDS011;4358;42.100;25.222;2023-06-19T00:56:30;5.53;;;5.03;;
8640;SDS011;4358;42.100;25.222;2023-06-19T00:58:57;7.40;;;5.00;;
8640;SDS011;4358;42.100;25.222;2023-06-19T01:01:24;5.43;;;4.93;;
8640;SDS011;4358;42.100;25.222;2023-06-19T01:03:54;5.70;;;5.20;;
8640;SDS011;4358;42.100;25.222;2023-06-19T01:06:22;5.70;;;5.17;;
8640;SDS011;4358;42.100;25.222;2023-06-19T01:09:04;6.37;;;4.83;;
8640;SDS011;4358;42.100;25.222;2023-06-19T01:11:37;5.20;;;4.70;;
8640;SDS011;4358;42.100;25.222;2023-06-19T01:14:08;6.67;;;5.30;;
8640;SDS011;4358;42.100;25.222;2023-06-19T01:16:38;5.50;;;5.00;;
8640;SDS011;4358;42.100;25.222;2023-06-19T01:19:08;5.47;;;4.97;;
8640;SDS011;4358;42.100;25.222;2023-06-19T01:21:36;5.20;;;4.70;;
8640;SDS011;4358;42.100;25.222;2023-06-19T01:24:06;5.33;;;4.83;;
8640;SDS011;4358;42.100;25.222;2023-06-19T01:26:32;6.67;;;5.17;;
8640;SDS011;4358;42.100;25.222;2023-06-19T01:28:59;4.70;;;4.27;;
8640;SDS011;4358;42.100;25.222;2023-06-19T01:31:28;6.50;;;4.33;;
8640;SDS011;4358;42.100;25.222;2023-06-19T01:34:00;6.43;;;4.80;;
8640;SDS011;4358;42.100;25.222;2023-06-19T01:36:28;5.40;;;4.40;;
8640;SDS011;4358;42.100;25.222;2023-06-19T01:38:57;5.73;;;5.23;;
8640;SDS011;4358;42.100;25.222;2023-06-19T01:41:26;6.80;;;4.90;;
8640;SDS011;4358;42.100;25.222;2023-06-19T01:43:54;5.03;;;4.63;;
8640;SDS011;4358;42.100;25.222;2023-06-19T01:46:21;6.60;;;5.20;;
8640;SDS011;4358;42.100;25.222;2023-06-19T01:48:48;7.93;;;5.50;;
8640;SDS011;4358;42.100;25.222;2023-06-19T01:51:15;5.40;;;4.90;;
8640;SDS011;4358;42.100;25.222;2023-06-19T01:53:42;5.63;;;5.13;;
8640;SDS011;4358;42.100;25.222;2023-06-19T01:56:09;5.53;;;5.03;;
8640;SDS011;4358;42.100;25.222;2023-06-19T01:58:37;5.97;;;5.37;;
8640;SDS011;4358;42.100;25.222;2023-06-19T02:01:04;5.80;;;5.10;;
8640;SDS011;4358;42.100;25.222;2023-06-19T02:03:31;5.30;;;4.80;;
8640;SDS011;4358;42.100;25.222;2023-06-19T02:05:58;5.80;;;5.30;;
8640;SDS011;4358;42.100;25.222;2023-06-19T02:08:25;5.57;;;4.73;;
8640;SDS011;4358;42.100;25.222;2023-06-19T02:10:52;5.40;;;4.83;;
8640;SDS011;4358;42.100;25.222;2023-06-19T02:13:18;5.97;;;5.40;;
8640;SDS011;4358;42.100;25.222;2023-06-19T02:15:47;6.97;;;5.47;;
8640;SDS011;4358;42.100;25.222;2023-06-19T02:18:13;7.67;;;5.20;;
8640;SDS011;4358;42.100;25.222;2023-06-19T02:20:40;11.03;;;4.83;;
8640;SDS011;4358;42.100;25.222;2023-06-19T02:23:07;5.67;;;5.07;;
8640;SDS011;4358;42.100;25.222;2023-06-19T02:25:34;5.17;;;4.47;;
8640;SDS011;4358;42.100;25.222;2023-06-19T02:28:01;5.00;;;4.50;;
8640;SDS011;4358;42.100;25.222;2023-06-19T02:30:29;4.90;;;4.40;;
8640;SDS011;4358;42.100;25.222;2023-06-19T02:32:57;4.47;;;4.07;;
8640;SDS011;4358;42.100;25.222;2023-06-19T02:35:24;5.40;;;4.90;;
8640;SDS011;4358;42.100;25.222;2023-06-19T02:37:51;5.17;;;4.67;;
8640;SDS011;4358;42.100;25.222;2023-06-19T02:40:17;4.43;;;4.03;;
8640;SDS011;4358;42.100;25.222;2023-06-19T02:42:44;4.53;;;4.07;;
8640;SDS011;4358;42.100;25.222;2023-06-19T02:45:11;5.03;;;4.53;;
8640;SDS011;4358;42.100;25.222;2023-06-19T02:47:38;5.20;;;4.70;;
8640;SDS011;4358;42.100;25.222;2023-06-19T02:50:07;4.90;;;4.40;;
8640;SDS011;4358;42.100;25.222;2023-06-19T02:52:34;5.27;;;4.77;;
8640;SDS011;4358;42.100;25.222;2023-06-19T02:55:01;5.50;;;5.00;;
8640;SDS011;4358;42.100;25.222;2023-06-19T02:57:28;4.90;;;4.30;;
8640;SDS011;4358;42.100;25.222;2023-06-19T02:59:54;4.77;;;4.33;;
8640;SDS011;4358;42.100;25.222;2023-06-19T03:02:21;4.87;;;4.47;;
8640;SDS011;4358;42.100;25.222;2023-06-19T03:04:48;7.57;;;4.70;;
8640;SDS011;4358;42.100;25.222;2023-06-19T03:07:16;6.20;;;4.33;;
8640;SDS011;4358;42.100;25.222;2023-06-19T03:09:43;5.07;;;4.57;;
8640;SDS011;4358;42.100;25.222;2023-06-19T03:12:10;5.00;;;4.50;;
8640;SDS011;4358;42.100;25.222;2023-06-19T03:14:38;4.80;;;4.33;;
8640;SDS011;4358;42.100;25.222;2023-06-19T03:17:05;4.83;;;4.43;;
8640;SDS011;4358;42.100;25.222;2023-06-19T03:19:32;5.87;;;4.53;;
8640;SDS011;4358;42.100;25.222;2023-06-19T03:21:59;5.47;;;4.50;;
8640;SDS011;4358;42.100;25.222;2023-06-19T03:24:27;5.20;;;4.70;;
8640;SDS011;4358;42.100;25.222;2023-06-19T03:26:54;5.30;;;4.70;;
8640;SDS011;4358;42.100;25.222;2023-06-19T03:29:21;5.20;;;4.70;;
8640;SDS011;4358;42.100;25.222;2023-06-19T03:31:48;5.60;;;5.07;;
8640;SDS011;4358;42.100;25.222;2023-06-19T03:34:15;4.93;;;4.50;;
8640;SDS011;4358;42.100;25.222;2023-06-19T03:36:42;4.77;;;4.37;;
8640;SDS011;4358;42.100;25.222;2023-06-19T03:39:09;5.57;;;5.07;;
8640;SDS011;4358;42.100;25.222;2023-06-19T03:41:37;6.33;;;5.27;;
8640;SDS011;4358;42.100;25.222;2023-06-19T03:44:04;5.93;;;5.37;;
8640;SDS011;4358;42.100;25.222;2023-06-19T03:46:31;8.03;;;5.53;;
8640;SDS011;4358;42.100;25.222;2023-06-19T03:48:57;6.10;;;5.50;;
8640;SDS011;4358;42.100;25.222;2023-06-19T03:51:24;5.70;;;5.10;;
8640;SDS011;4358;42.100;25.222;2023-06-19T03:53:54;6.07;;;5.47;;
8640;SDS011;4358;42.100;25.222;2023-06-19T03:56:21;6.53;;;5.83;;
8640;SDS011;4358;42.100;25.222;2023-06-19T03:58:49;6.57;;;5.80;;
8640;SDS011;4358;42.100;25.222;2023-06-19T04:01:15;6.63;;;5.40;;
8640;SDS011;4358;42.100;25.222;2023-06-19T04:03:42;9.90;;;6.27;;
8640;SDS011;4358;42.100;25.222;2023-06-19T04:06:09;7.47;;;5.97;;
8640;SDS011;4358;42.100;25.222;2023-06-19T04:08:36;11.03;;;5.43;;
8640;SDS011;4358;42.100;25.222;2023-06-19T04:11:03;6.20;;;5.60;;
8640;SDS011;4358;42.100;25.222;2023-06-19T04:13:29;6.87;;;5.47;;
8640;SDS011;4358;42.100;25.222;2023-06-19T04:15:58;9.40;;;5.20;;
8640;SDS011;4358;42.100;25.222;2023-06-19T04:18:25;6.63;;;5.83;;
8640;SDS011;4358;42.100;25.222;2023-06-19T04:20:52;6.70;;;6.00;;
8640;SDS011;4358;42.100;25.222;2023-06-19T04:23:19;9.17;;;6.27;;
8640;SDS011;4358;42.100;25.222;2023-06-19T04:25:46;6.17;;;5.67;;
8640;SDS011;4358;42.100;25.222;2023-06-19T04:28:13;7.83;;;6.87;;
8640;SDS011;4358;42.100;25.222;2023-06-19T04:30:40;9.07;;;8.00;;
8640;SDS011;4358;42.100;25.222;2023-06-19T04:33:09;9.47;;;8.43;;
8640;SDS011;4358;42.100;25.222;2023-06-19T04:35:36;11.60;;;8.10;;
8640;SDS011;4358;42.100;25.222;2023-06-19T04:38:05;14.63;;;8.53;;
8640;SDS011;4358;42.100;25.222;2023-06-19T04:40:32;12.87;;;7.70;;
8640;SDS011;4358;42.100;25.222;2023-06-19T04:42:59;10.27;;;7.33;;
8640;SDS011;4358;42.100;25.222;2023-06-19T04:45:27;12.37;;;8.20;;
8640;SDS011;4358;42.100;25.222;2023-06-19T04:47:54;9.47;;;8.47;;
8640;SDS011;4358;42.100;25.222;2023-06-19T04:50:22;10.07;;;7.37;;
8640;SDS011;4358;42.100;25.222;2023-06-19T04:52:49;7.80;;;7.10;;
8640;SDS011;4358;42.100;25.222;2023-06-19T04:55:16;7.30;;;6.57;;
8640;SDS011;4358;42.100;25.222;2023-06-19T04:57:43;8.67;;;7.10;;
8640;SDS011;4358;42.100;25.222;2023-06-19T05:00:10;10.23;;;7.07;;
8640;SDS011;4358;42.100;25.222;2023-06-19T05:02:38;9.57;;;7.37;;
8640;SDS011;4358;42.100;25.222;2023-06-19T05:05:08;9.80;;;7.27;;
8640;SDS011;4358;42.100;25.222;2023-06-19T05:07:37;11.40;;;6.63;;
8640;SDS011;4358;42.100;25.222;2023-06-19T05:10:04;6.90;;;5.70;;
8640;SDS011;4358;42.100;25.222;2023-06-19T05:12:33;6.57;;;5.37;;
8640;SDS011;4358;42.100;25.222;2023-06-19T05:15:01;6.47;;;5.30;;
8640;SDS011;4358;42.100;25.222;2023-06-19T05:17:28;6.20;;;5.10;;
8640;SDS011;4358;42.100;25.222;2023-06-19T05:19:55;5.60;;;4.93;;
8640;SDS011;4358;42.100;25.222;2023-06-19T05:22:21;6.33;;;4.63;;
8640;SDS011;4358;42.100;25.222;2023-06-19T05:24:50;6.87;;;4.83;;
8640;SDS011;4358;42.100;25.222;2023-06-19T05:27:17;7.60;;;4.73;;
8640;SDS011;4358;42.100;25.222;2023-06-19T05:29:44;5.77;;;4.70;;
8640;SDS011;4358;42.100;25.222;2023-06-19T05:32:11;5.27;;;4.20;;
8640;SDS011;4358;42.100;25.222;2023-06-19T05:34:38;5.90;;;4.70;;
8640;SDS011;4358;42.100;25.222;2023-06-19T05:37:05;5.57;;;4.47;;
8640;SDS011;4358;42.100;25.222;2023-06-19T05:39:32;5.03;;;4.53;;
8640;SDS011;4358;42.100;25.222;2023-06-19T05:42:00;5.00;;;4.50;;
8640;SDS011;4358;42.100;25.222;2023-06-19T05:44:27;4.80;;;4.33;;
8640;SDS011;4358;42.100;25.222;2023-06-19T05:46:54;4.63;;;4.23;;
8640;SDS011;4358;42.100;25.222;2023-06-19T05:49:21;4.60;;;4.20;;
8640;SDS011;4358;42.100;25.222;2023-06-19T05:51:48;4.40;;;4.00;;
8640;SDS011;4358;42.100;25.222;2023-06-19T05:54:14;5.33;;;4.60;;
8640;SDS011;4358;42.100;25.222;2023-06-19T05:56:42;5.10;;;4.60;;
8640;SDS011;4358;42.100;25.222;2023-06-19T05:59:11;4.57;;;4.17;;
8640;SDS011;4358;42.100;25.222;2023-06-19T06:01:39;4.70;;;4.30;;
8640;SDS011;4358;42.100;25.222;2023-06-19T06:04:06;4.60;;;4.10;;
8640;SDS011;4358;42.100;25.222;2023-06-19T06:06:33;4.53;;;3.73;;
8640;SDS011;4358;42.100;25.222;2023-06-19T06:09:00;6.57;;;4.37;;
8640;SDS011;4358;42.100;25.222;2023-06-19T06:11:27;7.00;;;4.23;;
8640;SDS011;4358;42.100;25.222;2023-06-19T06:13:53;5.47;;;4.10;;
8640;SDS011;4358;42.100;25.222;2023-06-19T06:16:22;4.73;;;4.00;;
8640;SDS011;4358;42.100;25.222;2023-06-19T06:18:49;4.50;;;4.10;;
8640;SDS011;4358;42.100;25.222;2023-06-19T06:21:16;6.63;;;4.03;;
8640;SDS011;4358;42.100;25.222;2023-06-19T06:23:42;4.67;;;3.97;;
8640;SDS011;4358;42.100;25.222;2023-06-19T06:26:10;5.73;;;4.23;;
8640;SDS011;4358;42.100;25.222;2023-06-19T06:28:37;5.03;;;4.20;;
8640;SDS011;4358;42.100;25.222;2023-06-19T06:31:04;3.83;;;3.53;;
8640;SDS011;4358;42.100;25.222;2023-06-19T06:33:33;4.63;;;4.07;;
8640;SDS011;4358;42.100;25.222;2023-06-19T06:35:59;4.20;;;3.90;;
8640;SDS011;4358;42.100;25.222;2023-06-19T06:38:27;4.87;;;4.37;;
8640;SDS011;4358;42.100;25.222;2023-06-19T06:40:54;7.13;;;4.40;;
8640;SDS011;4358;42.100;25.222;2023-06-19T06:43:21;4.97;;;4.47;;
8640;SDS011;4358;42.100;25.222;2023-06-19T06:45:48;4.30;;;3.90;;
8640;SDS011;4358;42.100;25.222;2023-06-19T06:48:15;6.67;;;4.40;;
8640;SDS011;4358;42.100;25.222;2023-06-19T06:50:43;4.70;;;4.30;;
8640;SDS011;4358;42.100;25.222;2023-06-19T06:53:10;4.90;;;4.40;;
8640;SDS011;4358;42.100;25.222;2023-06-19T06:55:37;7.60;;;4.70;;
8640;SDS011;4358;42.100;25.222;2023-06-19T06:58:04;5.87;;;4.93;;
8640;SDS011;4358;42.100;25.222;2023-06-19T07:00:31;4.80;;;4.03;;
8640;SDS011;4358;42.100;25.222;2023-06-19T07:02:58;6.47;;;4.40;;
8640;SDS011;4358;42.100;25.222;2023-06-19T07:05:24;5.03;;;4.53;;
8640;SDS011;4358;42.100;25.222;2023-06-19T07:07:53;20.20;;;5.83;;
8640;SDS011;4358;42.100;25.222;2023-06-19T07:10:19;4.53;;;4.13;;
8640;SDS011;4358;42.100;25.222;2023-06-19T07:12:47;4.90;;;4.40;;
8640;SDS011;4358;42.100;25.222;2023-06-19T07:15:14;4.53;;;4.13;;
8640;SDS011;4358;42.100;25.222;2023-06-19T07:17:41;6.73;;;4.63;;
8640;SDS011;4358;42.100;25.222;2023-06-19T07:20:08;5.17;;;4.60;;
8640;SDS011;4358;42.100;25.222;2023-06-19T07:22:36;5.30;;;4.80;;
8640;SDS011;4358;42.100;25.222;2023-06-19T07:25:05;4.90;;;4.30;;
8640;SDS011;4358;42.100;25.222;2023-06-19T07:27:32;4.93;;;4.40;;
8640;SDS011;4358;42.100;25.222;2023-06-19T07:29:59;5.23;;;4.73;;
8640;SDS011;4358;42.100;25.222;2023-06-19T07:32:26;5.27;;;4.77;;
8640;SDS011;4358;42.100;25.222;2023-06-19T07:34:53;4.97;;;4.50;;
8640;SDS011;4358;42.100;25.222;2023-06-19T07:37:20;7.07;;;4.10;;
8640;SDS011;4358;42.100;25.222;2023-06-19T07:39:48;5.33;;;4.80;;
8640;SDS011;4358;42.100;25.222;2023-06-19T07:42:17;5.07;;;4.63;;
8640;SDS011;4358;42.100;25.222;2023-06-19T07:44:45;5.43;;;4.63;;
8640;SDS011;4358;42.100;25.222;2023-06-19T07:47:12;4.60;;;4.20;;
8640;SDS011;4358;42.100;25.222;2023-06-19T07:49:43;5.47;;;4.60;;
8640;SDS011;4358;42.100;25.222;2023-06-19T07:52:10;5.03;;;4.53;;
8640;SDS011;4358;42.100;25.222;2023-06-19T07:54:47;4.87;;;4.40;;
8640;SDS011;4358;42.100;25.222;2023-06-19T07:57:19;5.37;;;4.47;;
8640;SDS011;4358;42.100;25.222;2023-06-19T07:59:46;5.10;;;4.70;;
8640;SDS011;4358;42.100;25.222;2023-06-19T08:02:13;4.83;;;4.43;;
8640;SDS011;4358;42.100;25.222;2023-06-19T08:04:40;5.37;;;4.23;;
8640;SDS011;4358;42.100;25.222;2023-06-19T08:07:07;6.10;;;4.83;;
8640;SDS011;4358;42.100;25.222;2023-06-19T08:09:34;5.30;;;4.73;;
8640;SDS011;4358;42.100;25.222;2023-06-19T08:12:01;5.43;;;4.90;;
8640;SDS011;4358;42.100;25.222;2023-06-19T08:14:29;5.30;;;4.50;;
8640;SDS011;4358;42.100;25.222;2023-06-19T08:16:56;4.90;;;4.40;;
8640;SDS011;4358;42.100;25.222;2023-06-19T08:19:22;4.80;;;4.30;;
8640;SDS011;4358;42.100;25.222;2023-06-19T08:21:49;5.40;;;4.57;;
8640;SDS011;4358;42.100;25.222;2023-06-19T08:24:17;6.33;;;4.70;;
8640;SDS011;4358;42.100;25.222;2023-06-19T08:26:44;4.73;;;4.33;;
8640;SDS011;4358;42.100;25.222;2023-06-19T08:29:10;5.40;;;4.77;;
8640;SDS011;4358;42.100;25.222;2023-06-19T08:31:39;4.67;;;4.27;;
8640;SDS011;4358;42.100;25.222;2023-06-19T08:34:05;9.37;;;4.37;;
8640;SDS011;4358;42.100;25.222;2023-06-19T08:36:34;4.50;;;4.10;;
8640;SDS011;4358;42.100;25.222;2023-06-19T08:39:01;5.10;;;3.90;;
8640;SDS011;4358;42.100;25.222;2023-06-19T08:41:28;4.50;;;4.10;;
8640;SDS011;4358;42.100;25.222;2023-06-19T08:43:55;4.70;;;4.30;;
8640;SDS011;4358;42.100;25.222;2023-06-19T08:46:23;6.90;;;4.37;;
8640;SDS011;4358;42.100;25.222;2023-06-19T08:48:51;5.10;;;4.60;;
8640;SDS011;4358;42.100;25.222;2023-06-19T08:51:21;6.57;;;4.47;;
8640;SDS011;4358;42.100;25.222;2023-06-19T08:53:48;4.83;;;4.00;;
8640;SDS011;4358;42.100;25.222;2023-06-19T08:56:17;4.57;;;4.17;;
8640;SDS011;4358;42.100;25.222;2023-06-19T08:58:43;4.07;;;3.70;;
8640;SDS011;4358;42.100;25.222;2023-06-19T09:01:10;4.40;;;4.00;;
8640;SDS011;4358;42.100;25.222;2023-06-19T09:03:38;4.40;;;4.00;;
8640;SDS011;4358;42.100;25.222;2023-06-19T09:06:07;4.60;;;4.13;;
8640;SDS011;4358;42.100;25.222;2023-06-19T09:08:34;4.70;;;4.20;;
8640;SDS011;4358;42.100;25.222;2023-06-19T09:11:01;4.20;;;3.90;;
8640;SDS011;4358;42.100;25.222;2023-06-19T09:13:30;4.33;;;3.67;;
8640;SDS011;4358;42.100;25.222;2023-06-19T09:15:58;4.57;;;4.17;;
8640;SDS011;4358;42.100;25.222;2023-06-19T09:18:28;4.23;;;3.93;;
8640;SDS011;4358;42.100;25.222;2023-06-19T09:20:55;4.83;;;4.37;;
8640;SDS011;4358;42.100;25.222;2023-06-19T09:23:24;5.03;;;4.07;;
8640;SDS011;4358;42.100;25.222;2023-06-19T09:25:51;4.60;;;4.30;;
8640;SDS011;4358;42.100;25.222;2023-06-19T09:28:21;7.70;;;4.17;;
8640;SDS011;4358;42.100;25.222;2023-06-19T09:30:55;5.87;;;3.80;;
8640;SDS011;4358;42.100;25.222;2023-06-19T09:33:24;4.17;;;3.77;;
8640;SDS011;4358;42.100;25.222;2023-06-19T09:35:52;4.83;;;3.63;;
8640;SDS011;4358;42.100;25.222;2023-06-19T09:38:21;4.70;;;4.17;;
8640;SDS011;4358;42.100;25.222;2023-06-19T09:40:51;4.40;;;4.00;;
8640;SDS011;4358;42.100;25.222;2023-06-19T09:43:19;4.18;;;3.78;;
8640;SDS011;4358;42.100;25.222;2023-06-19T09:45:50;4.30;;;3.90;;
8640;SDS011;4358;42.100;25.222;2023-06-19T09:48:22;4.30;;;3.85;;
8640;SDS011;4358;42.100;25.222;2023-06-19T09:50:54;5.78;;;3.90;;
8640;SDS011;4358;42.100;25.222;2023-06-19T09:53:26;6.32;;;3.90;;
8640;SDS011;4358;42.100;25.222;2023-06-19T09:55:55;3.67;;;3.38;;
8640;SDS011;4358;42.100;25.222;2023-06-19T09:58:22;4.80;;;4.10;;
8640;SDS011;4358;42.100;25.222;2023-06-19T10:00:49;3.45;;;3.15;;
8640;SDS011;4358;42.100;25.222;2023-06-19T10:03:16;7.50;;;3.42;;
8640;SDS011;4358;42.100;25.222;2023-06-19T10:05:43;4.15;;;3.28;;
8640;SDS011;4358;42.100;25.222;2023-06-19T10:08:10;5.93;;;3.40;;
8640;SDS011;4358;42.100;25.222;2023-06-19T10:10:37;4.20;;;3.60;;
8640;SDS011;4358;42.100;25.222;2023-06-19T10:13:15;3.80;;;3.40;;
8640;SDS011;4358;42.100;25.222;2023-06-19T10:15:42;5.18;;;3.65;;
8640;SDS011;4358;42.100;25.222;2023-06-19T10:18:13;3.95;;;3.35;;
8640;SDS011;4358;42.100;25.222;2023-06-19T10:20:42;4.68;;;3.10;;
8640;SDS011;4358;42.100;25.222;2023-06-19T10:23:11;3.70;;;3.30;;
8640;SDS011;4358;42.100;25.222;2023-06-19T10:25:39;3.22;;;3.03;;
8640;SDS011;4358;42.100;25.222;2023-06-19T10:28:17;7.30;;;3.60;;
8640;SDS011;4358;42.100;25.222;2023-06-19T10:30:51;4.35;;;3.17;;
8640;SDS011;4358;42.100;25.222;2023-06-19T10:33:19;4.18;;;3.78;;
8640;SDS011;4358;42.100;25.222;2023-06-19T10:35:46;3.60;;;3.30;;
8640;SDS011;4358;42.100;25.222;2023-06-19T10:38:14;4.97;;;3.45;;
8640;SDS011;4358;42.100;25.222;2023-06-19T10:40:42;3.90;;;3.50;;
8640;SDS011;4358;42.100;25.222;2023-06-19T10:43:09;3.75;;;3.42;;
8640;SDS011;4358;42.100;25.222;2023-06-19T10:45:37;3.38;;;3.03;;
8640;SDS011;4358;42.100;25.222;2023-06-19T10:48:04;3.60;;;3.30;;
8640;SDS011;4358;42.100;25.222;2023-06-19T10:50:33;3.65;;;3.20;;
8640;SDS011;4358;42.100;25.222;2023-06-19T10:53:01;4.00;;;3.60;;
8640;SDS011;4358;42.100;25.222;2023-06-19T10:55:29;3.92;;;3.53;;
8640;SDS011;4358;42.100;25.222;2023-06-19T10:57:55;3.78;;;3.30;;
8640;SDS011;4358;42.100;25.222;2023-06-19T11:00:23;5.00;;;3.60;;
8640;SDS011;4358;42.100;25.222;2023-06-19T11:02:53;4.60;;;3.33;;
8640;SDS011;4358;42.100;25.222;2023-06-19T11:05:20;3.60;;;3.30;;
8640;SDS011;4358;42.100;25.222;2023-06-19T11:07:51;3.70;;;3.00;;
8640;SDS011;4358;42.100;25.222;2023-06-19T11:10:20;3.90;;;3.50;;
8640;SDS011;4358;42.100;25.222;2023-06-19T11:12:48;5.32;;;3.63;;
8640;SDS011;4358;42.100;25.222;2023-06-19T11:15:15;3.92;;;3.53;;
8640;SDS011;4358;42.100;25.222;2023-06-19T11:17:42;4.00;;;3.55;;
8640;SDS011;4358;42.100;25.222;2023-06-19T11:20:11;3.60;;;3.30;;
8640;SDS011;4358;42.100;25.222;2023-06-19T11:22:40;3.97;;;3.60;;
8640;SDS011;4358;42.100;25.222;2023-06-19T11:25:08;5.25;;;3.72;;
8640;SDS011;4358;42.100;25.222;2023-06-19T11:27:37;3.63;;;3.33;;
8640;SDS011;4358;42.100;25.222;2023-06-19T11:30:05;5.38;;;3.30;;
8640;SDS011;4358;42.100;25.222;2023-06-19T11:32:33;4.20;;;3.45;;
8640;SDS011;4358;42.100;25.222;2023-06-19T11:35:06;5.57;;;3.25;;
8640;SDS011;4358;42.100;25.222;2023-06-19T11:37:36;4.30;;;3.90;;
8640;SDS011;4358;42.100;25.222;2023-06-19T11:40:03;5.82;;;3.50;;
8640;SDS011;4358;42.100;25.222;2023-06-19T11:42:46;4.82;;;3.22;;
8640;SDS011;4358;42.100;25.222;2023-06-19T11:45:14;5.97;;;3.40;;
8640;SDS011;4358;42.100;25.222;2023-06-19T11:47:42;4.00;;;3.50;;
8640;SDS011;4358;42.100;25.222;2023-06-19T11:50:10;3.50;;;3.20;;
8640;SDS011;4358;42.100;25.222;2023-06-19T11:52:39;5.10;;;3.50;;
8640;SDS011;4358;42.100;25.222;2023-06-19T11:55:06;4.72;;;3.78;;
8640;SDS011;4358;42.100;25.222;2023-06-19T11:57:34;4.32;;;3.85;;
8640;SDS011;4358;42.100;25.222;2023-06-19T12:00:01;4.18;;;3.47;;
8640;SDS011;4358;42.100;25.222;2023-06-19T12:02:34;4.15;;;3.78;;
8640;SDS011;4358;42.100;25.222;2023-06-19T12:05:01;3.88;;;3.58;;
8640;SDS011;4358;42.100;25.222;2023-06-19T12:07:28;6.30;;;3.75;;
8640;SDS011;4358;42.100;25.222;2023-06-19T12:09:56;5.53;;;4.38;;
8640;SDS011;4358;42.100;25.222;2023-06-19T12:12:23;4.40;;;4.00;;
8640;SDS011;4358;42.100;25.222;2023-06-19T12:14:51;3.80;;;3.50;;
8640;SDS011;4358;42.100;25.222;2023-06-19T12:17:18;4.57;;;4.18;;
8640;SDS011;4358;42.100;25.222;2023-06-19T12:19:45;4.50;;;3.85;;
8640;SDS011;4358;42.100;25.222;2023-06-19T12:22:11;3.88;;;3.58;;
8640;SDS011;4358;42.100;25.222;2023-06-19T12:24:38;4.30;;;3.90;;
8640;SDS011;4358;42.100;25.222;2023-06-19T12:27:06;4.07;;;3.78;;
8640;SDS011;4358;42.100;25.222;2023-06-19T12:29:33;5.03;;;3.97;;
8640;SDS011;4358;42.100;25.222;2023-06-19T12:32:00;4.05;;;3.67;;
8640;SDS011;4358;42.100;25.222;2023-06-19T12:34:28;4.95;;;4.00;;
8640;SDS011;4358;42.100;25.222;2023-06-19T12:36:55;4.20;;;3.80;;
8640;SDS011;4358;42.100;25.222;2023-06-19T12:39:23;4.93;;;3.80;;
8640;SDS011;4358;42.100;25.222;2023-06-19T12:41:50;4.35;;;3.95;;
8640;SDS011;4358;42.100;25.222;2023-06-19T12:44:20;5.03;;;3.60;;
8640;SDS011;4358;42.100;25.222;2023-06-19T12:46:48;3.65;;;3.35;;
8640;SDS011;4358;42.100;25.222;2023-06-19T12:49:15;7.32;;;4.10;;
8640;SDS011;4358;42.100;25.222;2023-06-19T12:51:42;4.30;;;3.90;;
8640;SDS011;4358;42.100;25.222;2023-06-19T12:54:09;5.53;;;4.35;;
8640;SDS011;4358;42.100;25.222;2023-06-19T12:56:35;3.78;;;3.47;;
8640;SDS011;4358;42.100;25.222;2023-06-19T12:59:02;4.22;;;3.83;;
8640;SDS011;4358;42.100;25.222;2023-06-19T13:01:30;4.38;;;3.97;;
8640;SDS011;4358;42.100;25.222;2023-06-19T13:03:57;6.60;;;3.60;;
8640;SDS011;4358;42.100;25.222;2023-06-19T13:06:24;4.40;;;3.67;;
8640;SDS011;4358;42.100;25.222;2023-06-19T13:08:51;7.82;;;4.88;;
8640;SDS011;4358;42.100;25.222;2023-06-19T13:11:18;5.63;;;3.70;;
8640;SDS011;4358;42.100;25.222;2023-06-19T13:13:45;4.35;;;3.95;;
8640;SDS011;4358;42.100;25.222;2023-06-19T13:16:12;3.90;;;3.60;;
8640;SDS011;4358;42.100;25.222;2023-06-19T13:18:42;4.15;;;3.83;;
8640;SDS011;4358;42.100;25.222;2023-06-19T13:21:09;4.03;;;3.42;;
8640;SDS011;4358;42.100;25.222;2023-06-19T13:23:36;5.03;;;3.63;;
8640;SDS011;4358;42.100;25.222;2023-06-19T13:26:03;3.85;;;3.55;;
8640;SDS011;4358;42.100;25.222;2023-06-19T13:28:31;3.83;;;3.53;;
8640;SDS011;4358;42.100;25.222;2023-06-19T13:30:58;4.28;;;3.88;;
8640;SDS011;4358;42.100;25.222;2023-06-19T13:33:25;3.78;;;3.47;;
8640;SDS011;4358;42.100;25.222;2023-06-19T13:35:54;4.35;;;3.63;;
8640;SDS011;4358;42.100;25.222;2023-06-19T13:38:21;6.10;;;3.70;;
8640;SDS011;4358;42.100;25.222;2023-06-19T13:40:48;4.07;;;3.58;;
8640;SDS011;4358;42.100;25.222;2023-06-19T13:43:15;4.03;;;3.70;;
8640;SDS011;4358;42.100;25.222;2023-06-19T13:45:42;4.10;;;3.50;;
8640;SDS011;4358;42.100;25.222;2023-06-19T13:48:09;4.38;;;3.97;;
8640;SDS011;4358;42.100;25.222;2023-06-19T13:50:35;3.88;;;3.58;;
8640;SDS011;4358;42.100;25.222;2023-06-19T13:53:04;4.18;;;3.88;;
8640;SDS011;4358;42.100;25.222;2023-06-19T13:55:30;3.92;;;3.45;;
8640;SDS011;4358;42.100;25.222;2023-06-19T13:57:57;4.13;;;3.83;;
8640;SDS011;4358;42.100;25.222;2023-06-19T14:00:24;3.88;;;3.15;;
8640;SDS011;4358;42.100;25.222;2023-06-19T14:02:52;3.83;;;3.53;;
8640;SDS011;4358;42.100;25.222;2023-06-19T14:05:19;3.97;;;3.42;;
8640;SDS011;4358;42.100;25.222;2023-06-19T14:07:46;3.60;;;3.30;;
8640;SDS011;4358;42.100;25.222;2023-06-19T14:10:15;6.57;;;3.67;;
8640;SDS011;4358;42.100;25.222;2023-06-19T14:12:42;3.97;;;3.63;;
8640;SDS011;4358;42.100;25.222;2023-06-19T14:15:09;4.30;;;3.83;;
8640;SDS011;4358;42.100;25.222;2023-06-19T14:17:36;4.28;;;3.88;;
8640;SDS011;4358;42.100;25.222;2023-06-19T14:20:03;3.80;;;3.50;;
8640;SDS011;4358;42.100;25.222;2023-06-19T14:22:31;5.40;;;4.00;;
8640;SDS011;4358;42.100;25.222;2023-06-19T14:24:58;4.68;;;4.28;;
8640;SDS011;4358;42.100;25.222;2023-06-19T14:27:28;4.50;;;4.10;;
8640;SDS011;4358;42.100;25.222;2023-06-19T14:29:55;4.78;;;4.28;;
8640;SDS011;4358;42.100;25.222;2023-06-19T14:32:22;4.40;;;4.00;;
8640;SDS011;4358;42.100;25.222;2023-06-19T14:34:49;3.70;;;3.35;;
8640;SDS011;4358;42.100;25.222;2023-06-19T14:37:16;5.25;;;3.90;;
8640;SDS011;4358;42.100;25.222;2023-06-19T14:39:43;4.30;;;3.90;;
8640;SDS011;4358;42.100;25.222;2023-06-19T14:42:10;4.90;;;3.80;;
8640;SDS011;4358;42.100;25.222;2023-06-19T14:44:38;4.43;;;4.03;;
8640;SDS011;4358;42.100;25.222;2023-06-19T14:47:05;4.68;;;3.80;;
8640;SDS011;4358;42.100;25.222;2023-06-19T14:49:33;4.95;;;3.85;;
8640;SDS011;4358;42.100;25.222;2023-06-19T14:52:00;4.10;;;3.70;;
8640;SDS011;4358;42.100;25.222;2023-06-19T14:54:27;4.18;;;3.78;;
8640;SDS011;4358;42.100;25.222;2023-06-19T14:56:54;4.10;;;3.70;;
8640;SDS011;4358;42.100;25.222;2023-06-19T14:59:20;6.43;;;3.45;;
8640;SDS011;4358;42.100;25.222;2023-06-19T15:01:49;3.97;;;3.67;;
8640;SDS011;4358;42.100;25.222;2023-06-19T15:04:15;4.28;;;3.88;;